Time;durP1;ratioP1;P1;durP2;ratioP2;P2;SDS_P1;SDS_P2;PMS_P1;PMS_P2;Temp;Humidity;BMP_temperature;BMP_pressure;BME280_temperature;BME280_humidity;BME280_pressure;Samples;Min_cycle;Max_cycle;Signal;HPM_P1;HPM_P2
2022/09/04 00:00:18;;;;;;;0.87;0.87;;;11.00;99.90;10.40;101267;;;;568327;250;24161;-77
2022/09/04 00:03:00;;;;;;;1.03;1.00;;;11.00;99.90;10.30;101266;;;;563136;250;24076;-79
2022/09/04 00:05:36;;;;;;;0.80;0.80;;;10.90;99.90;10.30;101262;;;;571518;250;24163;-78
2022/09/04 00:08:26;;;;;;;3.60;1.07;;;10.90;99.90;10.30;101266;;;;563059;250;24090;-77
2022/09/04 00:11:17;;;;;;;1.10;0.97;;;10.90;99.90;10.30;101264;;;;571323;250;24090;-81
2022/09/04 00:14:03;;;;;;;0.77;0.77;;;10.90;99.90;10.20;101263;;;;562210;250;24135;-77
2022/09/04 00:17:02;;;;;;;2.30;0.83;;;10.80;99.90;10.20;101254;;;;571374;250;24135;-78
2022/09/04 00:19:50;;;;;;;0.70;0.70;;;10.90;99.90;10.30;101261;;;;571396;250;24201;-78
2022/09/04 00:22:32;;;;;;;0.70;0.70;;;10.90;99.90;10.30;101266;;;;532911;264;24191;-78
2022/09/04 00:25:06;;;;;;;2.40;0.80;;;10.90;99.90;10.30;101267;;;;566776;244;24144;-78
2022/09/04 00:27:33;;;;;;;0.70;0.70;;;10.90;99.90;10.30;101275;;;;552571;255;24195;-79
2022/09/04 00:30:10;;;;;;;1.70;0.80;;;11.00;99.90;10.40;101268;;;;560774;246;24143;-78
2022/09/04 00:32:57;;;;;;;1.20;0.80;;;11.00;99.90;10.50;101268;;;;552389;255;24178;-79
2022/09/04 00:35:30;;;;;;;0.67;0.40;;;11.00;99.90;10.50;101272;;;;561090;255;24142;-77
2022/09/04 00:38:01;;;;;;;0.53;0.53;;;11.10;99.90;10.50;101269;;;;555050;255;24192;-79
2022/09/04 00:40:35;;;;;;;0.53;0.53;;;11.10;99.90;10.50;101272;;;;555047;253;24238;-81
2022/09/04 00:43:36;;;;;;;0.73;0.73;;;11.10;99.90;10.50;101274;;;;551707;255;24142;-77
2022/09/04 00:46:19;;;;;;;1.70;0.53;;;11.10;99.90;10.60;101268;;;;561097;252;24161;-78
2022/09/04 00:49:24;;;;;;;0.60;0.60;;;11.10;99.90;10.60;101284;;;;560411;255;24147;-81
2022/09/04 00:52:10;;;;;;;0.60;0.60;;;11.20;99.90;10.40;101278;;;;552378;255;24199;-80
2022/09/04 00:54:44;;;;;;;1.07;0.70;;;11.10;99.90;10.40;101271;;;;559559;251;24148;-77
2022/09/04 00:57:24;;;;;;;2.10;0.90;;;10.90;99.90;10.30;101270;;;;552157;255;24257;-78
2022/09/04 01:00:05;;;;;;;0.70;0.70;;;10.90;99.90;10.30;101267;;;;560352;255;24178;-78
2022/09/04 01:02:31;;;;;;;1.42;0.95;;;10.90;99.90;10.30;101271;;;;547845;251;35500;-78
2022/09/04 01:05:43;;;;;;;0.83;0.77;;;10.90;99.90;10.30;101265;;;;553502;254;24188;-77
2022/09/04 01:08:13;;;;;;;1.03;0.90;;;10.90;99.90;10.20;101275;;;;553879;251;24174;-77
2022/09/04 01:10:43;;;;;;;2.43;0.70;;;10.90;99.90;10.20;101276;;;;562097;253;24158;-79
2022/09/04 01:13:44;;;;;;;0.70;0.70;;;10.80;99.90;10.10;101269;;;;553970;255;24190;-80
2022/09/04 01:16:15;;;;;;;2.07;0.83;;;10.80;99.90;10.10;101278;;;;553719;255;24191;-78
2022/09/04 01:19:01;;;;;;;0.97;0.93;;;10.70;99.90;10.10;101268;;;;561502;255;24144;-79
2022/09/04 01:21:47;;;;;;;2.07;0.80;;;10.70;99.90;10.00;101274;;;;561147;252;24155;-80
2022/09/04 01:24:42;;;;;;;0.93;0.83;;;10.60;99.90;10.00;101276;;;;555069;255;24193;-80
2022/09/04 01:27:32;;;;;;;1.00;0.93;;;10.50;99.90;9.90;101278;;;;553213;251;24159;-79
2022/09/04 01:30:12;;;;;;;1.37;1.10;;;10.60;99.90;9.80;101283;;;;553213;255;24149;-79
2022/09/04 01:32:51;;;;;;;0.70;0.70;;;10.50;99.90;9.80;101274;;;;552787;255;24189;-82
2022/09/04 01:35:34;;;;;;;1.43;1.00;;;10.50;99.90;9.80;101269;;;;553254;255;24187;-78
2022/09/04 01:38:13;;;;;;;0.80;0.80;;;10.40;99.90;9.80;101276;;;;553684;255;24208;-77
2022/09/04 01:40:51;;;;;;;2.20;0.70;;;10.30;99.90;9.70;101274;;;;561289;255;24189;-78
2022/09/04 01:43:22;;;;;;;1.10;0.80;;;10.30;99.90;9.60;101277;;;;553067;254;24211;-78
2022/09/04 01:46:39;;;;;;;0.93;0.70;;;10.30;99.90;9.50;101280;;;;552797;255;24157;-78
2022/09/04 01:49:13;;;;;;;1.23;0.80;;;10.20;99.90;9.50;101278;;;;561435;255;24217;-79
2022/09/04 01:51:56;;;;;;;0.87;0.87;;;10.10;99.90;9.60;101272;;;;553286;255;24168;-79
2022/09/04 01:54:42;;;;;;;1.35;1.25;;;10.10;99.90;9.60;101276;;;;556732;255;35475;-77
2022/09/04 01:57:15;;;;;;;2.23;0.90;;;10.20;99.90;9.60;101272;;;;555799;255;24174;-78
2022/09/04 02:00:01;;;;;;;1.43;0.83;;;10.20;99.90;9.60;101277;;;;561205;252;24148;-77
2022/09/04 02:02:44;;;;;;;1.30;0.90;;;10.20;99.90;9.70;101271;;;;561137;254;24185;-79
2022/09/04 02:05:14;;;;;;;1.10;0.90;;;10.30;99.90;9.70;101268;;;;552698;255;24205;-80
2022/09/04 02:08:05;;;;;;;0.83;0.83;;;10.30;99.90;9.80;101281;;;;555039;255;24192;-78
2022/09/04 02:10:58;;;;;;;1.73;0.87;;;10.30;99.90;9.80;101276;;;;560548;251;24181;-80
2022/09/04 02:13:39;;;;;;;0.70;0.70;;;10.40;99.90;9.80;101276;;;;552639;251;24178;-79
2022/09/04 02:16:48;;;;;;;1.03;0.80;;;10.40;99.90;9.80;101275;;;;561023;251;24204;-75
2022/09/04 02:19:31;;;;;;;2.00;0.83;;;10.50;99.90;9.80;101267;;;;554026;255;24166;-77
2022/09/04 02:22:20;;;;;;;2.27;1.10;;;10.50;99.90;9.80;101269;;;;553954;255;24256;-77
2022/09/04 02:24:50;;;;;;;1.00;0.77;;;10.50;99.90;9.80;101267;;;;555902;255;24153;-78
2022/09/04 02:27:39;;;;;;;0.70;0.70;;;10.40;99.90;9.80;101269;;;;561308;252;24186;-77
2022/09/04 02:30:10;;;;;;;1.93;0.67;;;10.40;99.90;9.90;101274;;;;561304;251;24146;-77
2022/09/04 02:32:56;;;;;;;0.70;0.70;;;10.40;99.90;9.90;101266;;;;553043;255;24237;-77
2022/09/04 02:35:24;;;;;;;0.70;0.70;;;10.50;99.90;9.90;101265;;;;553349;255;24162;-78
2022/09/04 02:38:07;;;;;;;0.93;0.93;;;10.50;99.90;9.90;101265;;;;553791;255;24209;-78
2022/09/04 02:40:49;;;;;;;0.70;0.70;;;10.50;99.90;10.00;101263;;;;552819;255;24141;-77
2022/09/04 02:43:48;;;;;;;0.73;0.73;;;10.50;99.90;10.00;101259;;;;552734;255;24181;-77
2022/09/04 02:46:40;;;;;;;5.07;1.10;;;10.60;99.90;10.00;101266;;;;552927;255;24195;-78
2022/09/04 02:49:29;;;;;;;0.87;0.70;;;10.60;99.90;10.00;101268;;;;555136;254;24151;-78
2022/09/04 02:52:40;;;;;;;1.80;0.73;;;10.60;99.90;9.90;101266;;;;553005;255;24142;-78
2022/09/04 02:55:29;;;;;;;1.33;1.23;;;10.50;99.90;9.90;101264;;;;561066;255;24159;-78
2022/09/04 02:58:46;;;;;;;0.70;0.70;;;10.50;99.90;9.90;101264;;;;550033;255;25233;-76
2022/09/04 03:01:21;;;;;;;1.00;0.80;;;10.50;99.90;9.80;101265;;;;553334;255;24192;-76
2022/09/04 03:04:00;;;;;;;0.70;0.70;;;10.40;99.90;9.80;101256;;;;561189;251;24183;-76
2022/09/04 03:06:52;;;;;;;1.07;0.97;;;10.30;99.90;9.70;101268;;;;561098;252;24204;-77
2022/09/04 03:09:31;;;;;;;1.40;0.97;;;10.30;99.90;9.70;101268;;;;553001;255;24220;-78
2022/09/04 03:12:25;;;;;;;1.10;0.73;;;10.30;99.90;9.70;101262;;;;552946;255;24157;-77
2022/09/04 03:15:04;;;;;;;1.50;0.90;;;10.30;99.90;9.70;101279;;;;558355;252;24158;-79
2022/09/04 03:17:45;;;;;;;2.23;1.00;;;10.30;99.90;9.60;101270;;;;561573;255;24160;-80
2022/09/04 03:20:20;;;;;;;1.60;0.97;;;10.30;99.90;9.60;101258;;;;553456;255;24200;-77
2022/09/04 03:23:09;;;;;;;1.00;0.90;;;10.20;99.90;9.60;101269;;;;553632;254;24288;-77
2022/09/04 03:25:46;;;;;;;4.33;1.03;;;10.20;99.90;9.70;101268;;;;561013;252;24215;-79
2022/09/04 03:28:26;;;;;;;2.07;0.77;;;10.30;99.90;9.70;101273;;;;555980;254;24146;-79
2022/09/04 03:30:54;;;;;;;0.63;0.60;;;10.30;99.90;9.70;101267;;;;560555;255;24145;-79
2022/09/04 03:33:34;;;;;;;0.97;0.83;;;10.30;99.90;9.70;101269;;;;562138;251;24151;-78
2022/09/04 03:36:29;;;;;;;0.60;0.60;;;10.30;99.90;9.60;101268;;;;561897;249;24168;-79
2022/09/04 03:39:06;;;;;;;1.07;0.97;;;10.20;99.90;9.60;101281;;;;532613;268;24241;-79
2022/09/04 03:41:55;;;;;;;1.33;0.83;;;10.20;99.90;9.60;101288;;;;545109;248;24165;-78
2022/09/04 03:44:44;;;;;;;0.80;0.80;;;10.20;99.90;9.70;101280;;;;543638;260;24164;-79
2022/09/04 03:47:49;;;;;;;0.90;0.90;;;10.30;99.90;9.70;101278;;;;553323;255;24212;-80
2022/09/04 03:50:38;;;;;;;0.80;0.80;;;10.20;99.90;9.70;101280;;;;561415;255;24223;-79
2022/09/04 03:53:27;;;;;;;0.63;0.63;;;10.30;99.90;9.70;101286;;;;553314;255;24178;-80
2022/09/04 03:56:19;;;;;;;0.90;0.90;;;10.30;99.90;9.70;101283;;;;553081;255;24143;-79
2022/09/04 03:59:05;;;;;;;1.33;0.93;;;10.30;99.90;9.70;101284;;;;553125;255;24193;-78
2022/09/04 04:01:57;;;;;;;1.07;0.70;;;10.30;99.90;9.70;101283;;;;552725;255;24156;-78
2022/09/04 04:04:37;;;;;;;1.00;1.00;;;10.30;99.90;9.70;101290;;;;548595;255;24136;-78
2022/09/04 04:07:10;;;;;;;1.00;1.00;;;10.30;99.90;9.70;101290;;;;560351;252;25181;-78
2022/09/04 04:09:53;;;;;;;1.17;0.90;;;10.30;99.90;9.60;101291;;;;560829;255;24244;-79
2022/09/04 04:12:57;;;;;;;1.37;1.10;;;10.20;99.90;9.60;101295;;;;549977;255;35516;-78
2022/09/04 04:15:56;;;;;;;1.50;1.00;;;10.20;99.90;9.60;101305;;;;552957;255;24194;-80
2022/09/04 04:18:55;;;;;;;0.80;0.80;;;10.20;99.90;9.60;101306;;;;561218;255;24203;-79
2022/09/04 04:21:49;;;;;;;0.60;0.60;;;10.20;99.90;9.60;101305;;;;554977;255;24235;-78
2022/09/04 04:24:19;;;;;;;0.83;0.83;;;10.20;99.90;9.60;101311;;;;560482;252;24158;-79
2022/09/04 04:26:58;;;;;;;0.93;0.93;;;10.20;99.90;9.70;101312;;;;554661;254;24187;-77
2022/09/04 04:29:57;;;;;;;0.80;0.80;;;10.30;99.90;9.80;101317;;;;561428;250;24184;-78
2022/09/04 04:32:27;;;;;;;0.70;0.70;;;10.30;99.90;9.90;101321;;;;561202;255;24163;-80
2022/09/04 04:35:12;;;;;;;1.95;0.95;;;10.50;99.90;10.00;101321;;;;556333;252;35507;-78
2022/09/04 04:38:25;;;;;;;0.77;0.77;;;10.50;99.90;10.00;101322;;;;552911;255;24160;-77
2022/09/04 04:41:20;;;;;;;0.70;0.70;;;10.70;99.90;10.10;101318;;;;562432;254;24137;-77
2022/09/04 04:44:06;;;;;;;0.80;0.80;;;10.70;99.90;10.20;101322;;;;553897;255;24183;-77
2022/09/04 04:46:49;;;;;;;1.13;0.93;;;10.80;99.90;10.20;101322;;;;555870;254;24148;-76
2022/09/04 04:49:55;;;;;;;1.20;0.77;;;10.80;99.90;10.30;101317;;;;553598;255;24135;-77
2022/09/04 04:52:40;;;;;;;0.80;0.80;;;10.90;99.90;10.50;101322;;;;553220;255;24179;-78
2022/09/04 04:55:30;;;;;;;0.70;0.57;;;11.00;99.90;10.60;101327;;;;555599;255;24134;-79
2022/09/04 04:58:03;;;;;;;4.37;0.60;;;11.20;99.90;10.80;101330;;;;555452;254;24213;-77
2022/09/04 05:01:03;;;;;;;0.40;0.40;;;11.30;99.90;11.10;101334;;;;552514;255;24152;-78
2022/09/04 05:03:54;;;;;;;0.50;0.50;;;11.60;99.90;12.50;101329;;;;555776;255;24218;-80
2022/09/04 05:06:35;;;;;;;0.73;0.73;;;12.60;99.90;15.10;101337;;;;561289;252;24203;-79
2022/09/04 05:09:04;;;;;;;0.50;0.50;;;15.00;99.90;17.20;101343;;;;552726;255;24169;-79
2022/09/04 05:12:06;;;;;;;0.50;0.50;;;17.20;99.90;19.10;101348;;;;560746;252;24162;-80
2022/09/04 05:14:51;;;;;;;1.53;0.83;;;19.20;99.90;21.00;101356;;;;553104;255;24162;-78
2022/09/04 05:17:34;;;;;;;2.90;0.90;;;21.20;96.90;22.40;101361;;;;549110;255;24185;-77
2022/09/04 05:20:17;;;;;;;2.27;0.90;;;22.70;85.90;23.20;101356;;;;560129;252;23188;-77
2022/09/04 05:23:24;;;;;;;0.60;0.57;;;23.70;79.40;24.10;101363;;;;552925;255;24172;-78
2022/09/04 05:26:08;;;;;;;1.87;0.97;;;24.60;72.70;24.60;101361;;;;553034;255;24168;-78
2022/09/04 05:28:45;;;;;;;0.83;0.83;;;26.10;63.40;25.60;101366;;;;552581;255;24192;-78
2022/09/04 05:31:22;;;;;;;1.13;0.93;;;26.00;63.30;26.50;101372;;;;555636;255;23237;-78
2022/09/04 05:34:02;;;;;;;1.47;0.60;;;27.00;60.70;27.30;101369;;;;560617;251;23152;-78
2022/09/04 05:37:00;;;;;;;0.60;0.60;;;27.90;56.90;28.10;101376;;;;554896;255;23153;-78
2022/09/04 05:39:29;;;;;;;0.83;0.83;;;29.40;52.60;28.90;101385;;;;552432;254;23145;-77
2022/09/04 05:42:12;;;;;;;0.60;0.60;;;29.70;51.30;29.20;101382;;;;560639;255;23176;-76
2022/09/04 05:45:08;;;;;;;0.70;0.70;;;30.20;49.80;29.70;101386;;;;552486;255;23158;-77
2022/09/04 05:48:15;;;;;;;0.80;0.80;;;30.20;49.80;29.80;101395;;;;552518;255;23153;-78
2022/09/04 05:50:46;;;;;;;1.20;0.70;;;30.40;48.60;30.40;101402;;;;553330;254;23178;-78
2022/09/04 05:54:06;;;;;;;0.60;0.60;;;30.90;48.40;31.20;101400;;;;562402;254;23137;-77
2022/09/04 05:56:52;;;;;;;0.85;0.85;;;31.60;48.20;32.10;101409;;;;553753;255;23185;-78
2022/09/04 05:59:51;;;;;;;0.50;0.50;;;32.50;46.50;32.80;101407;;;;561874;254;24208;-79
2022/09/04 06:02:42;;;;;;;0.85;0.85;;;33.20;44.30;32.80;101422;;;;553183;255;24152;-80
2022/09/04 06:05:40;;;;;;;0.77;0.60;;;33.40;43.10;32.50;101428;;;;561693;254;23171;-77
2022/09/04 06:08:36;;;;;;;1.12;1.02;;;33.30;42.50;32.30;101424;;;;561669;255;23179;-77
2022/09/04 06:11:44;;;;;;;3.72;0.90;;;33.10;42.20;32.20;101427;;;;553072;255;24187;-77
2022/09/04 06:14:32;;;;;;;1.12;0.65;;;32.90;42.50;32.70;101431;;;;561420;252;23143;-77
2022/09/04 06:17:31;;;;;;;2.47;0.70;;;33.30;42.30;33.10;101435;;;;553003;251;23157;-78
2022/09/04 06:20:03;;;;;;;3.28;0.60;;;33.90;41.90;33.40;101445;;;;553180;255;23184;-77
2022/09/04 06:22:49;;;;;;;1.30;0.70;;;33.80;41.80;33.50;101446;;;;561140;255;24218;-77
2022/09/04 06:25:32;;;;;;;0.40;0.40;;;34.10;40.20;33.30;101450;;;;553270;255;23180;-77
2022/09/04 06:28:46;;;;;;;1.05;0.73;;;33.90;40.60;33.30;101446;;;;561214;255;24195;-78
2022/09/04 06:31:19;;;;;;;0.57;0.57;;;33.80;40.90;33.00;101449;;;;553176;255;23195;-80
2022/09/04 06:33:59;;;;;;;1.58;0.60;;;33.80;40.30;33.30;101452;;;;560151;251;25356;-78
2022/09/04 06:37:14;;;;;;;1.17;0.85;;;34.20;40.50;33.80;101455;;;;554792;254;23220;-77
2022/09/04 06:40:10;;;;;;;0.80;0.80;;;34.60;39.30;33.90;101460;;;;553059;255;23228;-80
2022/09/04 06:42:59;;;;;;;1.98;0.68;;;34.50;39.20;33.60;101452;;;;552897;255;24132;-79
2022/09/04 06:45:48;;;;;;;2.00;0.73;;;34.30;40.40;34.50;101448;;;;561105;246;23140;-78
2022/09/04 06:48:44;;;;;;;1.37;0.90;;;34.90;39.70;35.20;101460;;;;553043;255;24198;-80
2022/09/04 06:51:52;;;;;;;2.15;0.47;;;35.40;38.80;34.70;101464;;;;552893;255;23162;-78
2022/09/04 06:54:47;;;;;;;3.65;0.52;;;35.40;38.00;34.60;101463;;;;553079;255;23160;-79
2022/09/04 06:57:30;;;;;;;0.82;0.40;;;35.20;38.00;34.20;101466;;;;553251;254;24265;-80
2022/09/04 07:00:07;;;;;;;1.40;0.40;;;35.00;37.30;33.50;101468;;;;561527;254;23180;-78
2022/09/04 07:03:02;;;;;;;1.20;0.60;;;34.50;37.50;32.40;101465;;;;553563;254;24214;-79
2022/09/04 07:05:49;;;;;;;1.27;0.47;;;33.50;38.80;32.10;101472;;;;554709;255;24185;-80
2022/09/04 07:08:43;;;;;;;0.52;0.52;;;33.10;39.30;32.90;101478;;;;554964;255;23158;-78
2022/09/04 07:11:17;;;;;;;1.65;0.70;;;33.30;39.20;33.60;101488;;;;562904;254;23172;-78
2022/09/04 07:14:18;;;;;;;2.87;0.60;;;33.90;38.90;34.20;101483;;;;562289;255;24145;-78
2022/09/04 07:17:04;;;;;;;1.25;0.60;;;34.40;39.30;35.10;101494;;;;553706;250;23189;-77
2022/09/04 07:20:02;;;;;;;0.40;0.40;;;35.30;37.80;34.70;101492;;;;561996;252;23183;-78
2022/09/04 07:22:53;;;;;;;1.50;0.70;;;35.50;36.70;34.00;101493;;;;551406;255;23197;-77
2022/09/04 07:25:26;;;;;;;2.25;0.80;;;34.90;37.50;33.80;101499;;;;555712;255;25237;-80
2022/09/04 07:28:34;;;;;;;1.02;0.50;;;34.70;36.70;33.30;101503;;;;553335;251;24151;-80
2022/09/04 07:31:27;;;;;;;0.47;0.47;;;34.20;37.20;33.40;101506;;;;561895;255;23186;-82
2022/09/04 07:34:12;;;;;;;0.98;0.75;;;34.20;37.10;33.70;101508;;;;553580;255;23157;-80
2022/09/04 07:37:26;;;;;;;1.37;0.60;;;34.20;37.70;34.10;101509;;;;553073;255;23155;-78
2022/09/04 07:39:57;;;;;;;0.77;0.40;;;34.60;37.00;34.80;101524;;;;553002;255;23210;-79
2022/09/04 07:42:50;;;;;;;0.57;0.50;;;35.70;35.40;35.40;101524;;;;552534;255;23204;-79
2022/09/04 07:45:31;;;;;;;0.30;0.30;;;35.70;35.40;35.10;101529;;;;552456;251;23169;-79
2022/09/04 07:48:17;;;;;;;1.45;0.60;;;35.70;35.60;35.10;101528;;;;531041;255;35442;-77
2022/09/04 07:51:02;;;;;;;0.50;0.50;;;35.70;35.60;35.10;101532;;;;553303;255;23176;-78
2022/09/04 07:53:40;;;;;;;0.30;0.30;;;35.70;35.30;34.80;101529;;;;552935;254;23156;-78
2022/09/04 07:56:43;;;;;;;1.65;0.40;;;35.60;35.10;35.10;101537;;;;560380;252;23197;-78
2022/09/04 07:59:30;;;;;;;0.47;0.47;;;35.80;35.00;34.80;101535;;;;553217;256;24190;-79
2022/09/04 08:02:14;;;;;;;1.50;0.40;;;35.30;35.20;34.50;101530;;;;552430;255;24251;-79
2022/09/04 08:05:03;;;;;;;0.60;0.60;;;35.30;35.20;34.70;101538;;;;552817;248;23202;-79
2022/09/04 08:07:33;;;;;;;0.90;0.37;;;35.40;35.40;34.80;101543;;;;553042;255;23144;-81
2022/09/04 08:10:22;;;;;;;0.60;0.60;;;35.50;35.30;35.30;101546;;;;561173;255;23154;-81
2022/09/04 08:13:12;;;;;;;1.00;0.30;;;35.90;35.00;35.60;101552;;;;557975;255;23200;-78
2022/09/04 08:16:00;;;;;;;1.10;0.60;;;36.30;35.00;36.40;101553;;;;551934;254;23205;-77
2022/09/04 08:18:34;;;;;;;0.60;0.60;;;36.90;35.10;37.10;101550;;;;553842;255;23173;-80
2022/09/04 08:21:09;;;;;;;0.50;0.50;;;37.70;34.00;36.40;101562;;;;553621;255;23229;-80
2022/09/04 08:24:09;;;;;;;0.77;0.77;;;37.60;33.40;35.10;101551;;;;561627;251;23196;-78
2022/09/04 08:26:58;;;;;;;2.95;0.73;;;36.60;34.40;35.20;101553;;;;553286;255;23176;-76
2022/09/04 08:29:50;;;;;;;0.40;0.40;;;36.30;34.80;34.80;101557;;;;553446;255;23184;-78
2022/09/04 08:32:18;;;;;;;0.40;0.40;;;36.10;34.40;34.40;101549;;;;552907;255;23196;-78
2022/09/04 08:35:19;;;;;;;1.73;0.55;;;35.70;35.20;35.30;101564;;;;561329;252;23172;-81
2022/09/04 08:38:33;;;;;;;1.90;0.65;;;36.10;35.10;34.90;101572;;;;547956;255;35509;-81
2022/09/04 08:41:19;;;;;;;1.12;0.50;;;36.00;34.90;34.70;101565;;;;561608;252;24193;-83
2022/09/04 08:44:11;;;;;;;1.00;0.60;;;35.80;35.60;35.70;101576;;;;553494;255;23211;-75
2022/09/04 08:47:00;;;;;;;0.68;0.62;;;36.50;35.10;35.70;101570;;;;553559;253;23164;-76
2022/09/04 08:49:52;;;;;;;1.17;0.40;;;36.70;34.90;35.10;101573;;;;561654;255;23165;-76
2022/09/04 08:52:39;;;;;;;0.88;0.60;;;36.30;35.00;35.30;101573;;;;552869;255;23192;-78
2022/09/04 08:55:25;;;;;;;2.42;0.70;;;36.30;34.80;36.50;101576;;;;547808;258;23161;-80
2022/09/04 08:58:51;;;;;;;0.90;0.40;;;37.20;33.90;37.60;101573;;;;547132;258;23201;-81
2022/09/04 09:01:30;;;;;;;2.17;0.57;;;38.30;32.20;37.60;101572;;;;542345;260;23212;-78
2022/09/04 09:04:22;;;;;;;4.32;0.62;;;38.90;31.50;37.10;101571;;;;543622;260;23187;-77
2022/09/04 09:07:24;;;;;;;4.18;0.50;;;38.80;31.10;36.70;101578;;;;543737;260;24204;-77
2022/09/04 09:10:18;;;;;;;0.85;0.60;;;38.40;31.50;36.50;101576;;;;543894;260;23234;-76
2022/09/04 09:13:14;;;;;;;0.30;0.30;;;38.20;32.00;35.60;101585;;;;544566;260;23189;-80
2022/09/04 09:16:04;;;;;;;1.85;0.60;;;37.50;31.70;35.20;101580;;;;545031;255;23133;-79
2022/09/04 09:18:40;;;;;;;0.62;0.40;;;37.10;32.10;35.50;101580;;;;563774;254;23158;-80
2022/09/04 09:21:24;;;;;;;0.62;0.50;;;37.10;31.50;35.20;101575;;;;551863;260;23111;-79
2022/09/04 09:24:19;;;;;;;2.67;2.50;;;37.10;31.40;35.60;101591;;;;553366;255;23159;-84
2022/09/04 09:27:20;;;;;;;3.12;0.50;;;37.20;31.60;35.10;101583;;;;554471;254;23268;-81
2022/09/04 09:30:18;;;;;;;1.80;0.40;;;37.10;31.70;33.80;101588;;;;554775;255;23211;-78
2022/09/04 09:33:06;;;;;;;0.90;0.57;;;36.00;32.60;34.00;101591;;;;554083;255;23179;-82
2022/09/04 09:36:03;;;;;;;0.40;0.40;;;35.70;32.50;33.90;101583;;;;561979;255;23161;-84
2022/09/04 09:39:01;;;;;;;1.35;0.50;;;35.70;32.50;34.10;101582;;;;553868;255;23184;-80
2022/09/04 09:42:06;;;;;;;1.75;0.65;;;35.70;32.80;34.40;101592;;;;553447;255;24165;-77
2022/09/04 09:44:45;;;;;;;1.67;0.40;;;36.10;32.80;34.20;101581;;;;553526;254;24181;-77
2022/09/04 09:47:50;;;;;;;0.40;0.40;;;36.00;32.40;33.50;101586;;;;549207;255;24148;-76
2022/09/04 09:50:24;;;;;;;1.48;0.40;;;35.60;32.80;33.30;101583;;;;553481;254;23156;-83
2022/09/04 09:53:28;;;;;;;1.12;0.50;;;35.30;33.00;33.60;101593;;;;560560;255;23208;-76
2022/09/04 09:56:02;;;;;;;0.82;0.50;;;35.30;33.00;33.90;101597;;;;553117;255;23164;-77
2022/09/04 09:59:19;;;;;;;0.90;0.40;;;35.60;33.00;34.60;101592;;;;552577;255;23160;-83
2022/09/04 10:02:18;;;;;;;1.20;0.52;;;36.30;32.70;34.40;101602;;;;553709;255;23158;-78
2022/09/04 10:04:46;;;;;;;0.50;0.40;;;36.30;32.70;34.50;101595;;;;553415;255;23179;-78
2022/09/04 10:07:29;;;;;;;2.37;0.50;;;36.40;32.60;33.90;101595;;;;553392;255;23189;-80
2022/09/04 10:10:09;;;;;;;1.23;0.50;;;36.10;33.00;33.00;101600;;;;561069;252;23270;-81
2022/09/04 10:13:07;;;;;;;2.50;0.60;;;35.20;35.00;31.60;101587;;;;557644;255;23158;-79
2022/09/04 10:16:12;;;;;;;3.92;0.60;;;34.00;35.30;30.10;101588;;;;552763;255;23164;-77
2022/09/04 10:19:03;;;;;;;2.03;0.50;;;30.20;38.70;28.40;101598;;;;553437;255;23166;-80
2022/09/04 10:21:35;;;;;;;3.42;0.60;;;30.10;38.70;27.00;101591;;;;553301;255;23158;-79
2022/09/04 10:24:28;;;;;;;1.83;0.40;;;28.70;40.80;25.20;101587;;;;548062;255;23177;-82
2022/09/04 10:27:16;;;;;;;3.83;0.53;;;27.10;43.70;24.10;101588;;;;553405;255;23156;-80
2022/09/04 10:30:09;;;;;;;0.70;0.33;;;24.30;47.70;23.00;101585;;;;553357;255;24175;-81
2022/09/04 10:32:58;;;;;;;0.53;0.50;;;24.10;47.60;22.20;101577;;;;553003;255;24143;-79
2022/09/04 10:35:39;;;;;;;1.63;0.30;;;23.30;49.90;21.90;101574;;;;553141;255;24167;-83
2022/09/04 10:41:45;;;;;;;0.40;0.40;;;21.90;54.30;21.10;101569;;;;562873;255;24216;-80
2022/09/04 10:44:55;;;;;;;0.40;0.40;;;21.80;54.20;20.70;101564;;;;554038;255;23172;-84
2022/09/04 10:47:43;;;;;;;0.50;0.50;;;21.40;55.10;20.30;101568;;;;554214;255;24139;-83
2022/09/04 10:50:45;;;;;;;4.50;0.30;;;21.00;56.50;20.00;101575;;;;561466;255;24256;-84
2022/09/04 10:53:56;;;;;;;0.30;0.30;;;20.70;56.60;19.60;101569;;;;552741;255;24282;-77
2022/09/04 10:56:36;;;;;;;0.67;0.30;;;20.30;58.00;19.30;101569;;;;553404;255;24177;-79
2022/09/04 10:59:12;;;;;;;0.40;0.40;;;19.90;58.40;19.10;101574;;;;552022;255;24223;-81
2022/09/04 11:02:06;;;;;;;0.20;0.20;;;19.70;58.70;19.00;101576;;;;553216;255;24178;-80
2022/09/04 11:04:58;;;;;;;0.40;0.40;;;19.50;59.80;18.90;101556;;;;553847;255;24131;-80
2022/09/04 11:08:08;;;;;;;0.30;0.30;;;19.30;60.30;18.80;101553;;;;552826;255;24148;-78
2022/09/04 11:11:05;;;;;;;0.63;0.33;;;19.30;60.20;18.70;101551;;;;553225;255;24147;-78
2022/09/04 11:14:02;;;;;;;0.30;0.30;;;19.20;60.70;18.70;101552;;;;553159;255;24162;-80
2022/09/04 11:16:28;;;;;;;0.60;0.60;;;19.20;60.90;18.60;101549;;;;553069;255;24166;-79
2022/09/04 11:19:27;;;;;;;2.83;0.50;;;19.10;60.60;18.50;101555;;;;552941;255;24218;-82
2022/09/04 11:22:33;;;;;;;0.40;0.40;;;19.00;61.20;18.30;101559;;;;561000;255;24184;-76
2022/09/04 11:25:17;;;;;;;0.47;0.43;;;18.90;60.70;18.30;101555;;;;552843;255;24145;-78
2022/09/04 11:27:57;;;;;;;0.87;0.47;;;18.80;62.60;18.30;101559;;;;557245;255;24162;-80
2022/09/04 11:30:33;;;;;;;0.90;0.20;;;18.80;62.50;18.20;101551;;;;552674;255;24132;-80
2022/09/04 11:33:47;;;;;;;0.77;0.60;;;18.70;62.70;18.10;101554;;;;552218;255;24185;-77
2022/09/04 11:36:28;;;;;;;0.90;0.40;;;18.60;63.40;18.10;101559;;;;553284;255;24184;-78
2022/09/04 11:39:10;;;;;;;0.50;0.50;;;18.60;63.40;18.00;101546;;;;552462;255;24147;-81
2022/09/04 11:41:50;;;;;;;1.70;0.43;;;18.50;63.00;17.80;101549;;;;552966;255;24174;-84
2022/09/04 11:44:36;;;;;;;0.73;0.53;;;18.40;62.90;17.70;101553;;;;552313;255;24150;-83
2022/09/04 11:47:22;;;;;;;2.23;0.50;;;18.20;64.00;17.70;101561;;;;552582;255;24164;-83
2022/09/04 11:50:15;;;;;;;0.20;0.20;;;18.20;64.00;17.60;101558;;;;554301;254;24121;-83
2022/09/04 11:52:56;;;;;;;2.30;1.10;;;18.10;64.00;17.50;101554;;;;554192;255;24189;-79
2022/09/04 11:55:30;;;;;;;0.30;0.30;;;18.10;63.90;17.50;101562;;;;553630;255;24134;-83
2022/09/04 11:58:13;;;;;;;0.57;0.57;;;18.00;64.50;17.40;101549;;;;553056;255;24151;-84
2022/09/04 12:00:57;;;;;;;0.30;0.30;;;17.90;64.00;17.40;101547;;;;561197;252;24179;-81
2022/09/04 12:03:36;;;;;;;0.60;0.60;;;17.90;64.80;17.40;101559;;;;551122;255;24162;-76
2022/09/04 12:06:44;;;;;;;1.27;0.57;;;17.80;64.60;17.40;101555;;;;554123;255;24139;-84
2022/09/04 12:09:32;;;;;;;0.53;0.53;;;17.80;64.60;17.30;101571;;;;554134;253;24194;-82
2022/09/04 12:12:15;;;;;;;0.57;0.40;;;17.80;64.30;17.20;101566;;;;553412;255;24172;-83
2022/09/04 12:15:21;;;;;;;0.30;0.30;;;17.70;65.00;17.20;101574;;;;543128;260;24158;-85
2022/09/04 12:17:51;;;;;;;0.30;0.30;;;17.70;64.30;17.10;101556;;;;544002;259;24186;-77
2022/09/04 12:21:02;;;;;;;0.40;0.27;;;17.60;63.30;17.10;101563;;;;551035;260;24173;-84
2022/09/04 12:24:01;;;;;;;3.27;0.60;;;17.60;66.00;17.00;101552;;;;555535;254;24182;-79
2022/09/04 12:27:00;;;;;;;0.23;0.20;;;17.50;66.30;17.00;101549;;;;552374;256;24190;-84
2022/09/04 12:29:58;;;;;;;2.57;0.60;;;17.40;62.50;17.00;101543;;;;551233;260;24161;-78
2022/09/04 12:32:41;;;;;;;0.30;0.30;;;17.50;63.30;16.90;101563;;;;543256;260;24275;-78
2022/09/04 12:35:20;;;;;;;0.40;0.40;;;17.40;62.70;16.90;101554;;;;542787;260;24197;-85
2022/09/04 12:38:09;;;;;;;0.47;0.10;;;17.40;61.30;16.90;101551;;;;543738;259;24161;-83
2022/09/04 12:40:46;;;;;;;0.77;0.33;;;17.40;63.90;16.90;101551;;;;543378;260;24167;-77
2022/09/04 12:43:32;;;;;;;1.07;0.40;;;17.40;64.00;17.00;101571;;;;550373;256;24185;-84
2022/09/04 12:46:34;;;;;;;0.30;0.30;;;17.40;63.90;16.90;101554;;;;552603;255;24151;-83
2022/09/04 12:49:48;;;;;;;0.43;0.33;;;17.40;63.40;16.90;101545;;;;543973;259;24235;-78